createdAt,value
2018-09-29T00:01:16.814Z,1030.54
2018-09-29T00:02:43.335Z,1030.56
2018-09-29T00:04:10.763Z,1030.59
2018-09-29T00:05:36.740Z,1030.58
2018-09-29T00:07:03.975Z,1030.58
2018-09-29T00:08:31.338Z,1030.63
2018-09-29T00:09:58.587Z,1030.70
2018-09-29T00:11:26.960Z,1030.72
2018-09-29T00:12:53.370Z,1030.78
2018-09-29T00:14:20.489Z,1030.77
2018-09-29T00:15:47.786Z,1030.75
2018-09-29T00:17:14.352Z,1030.74
2018-09-29T00:18:41.162Z,1030.71
2018-09-29T00:20:07.516Z,1030.69
2018-09-29T00:21:34.926Z,1030.68
2018-09-29T00:23:02.057Z,1030.68
2018-09-29T00:24:29.378Z,1030.64
2018-09-29T00:25:57.815Z,1030.65
2018-09-29T00:27:24.164Z,1030.66
2018-09-29T00:28:51.510Z,1030.65
2018-09-29T00:30:18.862Z,1030.64
2018-09-29T00:31:46.225Z,1030.63
2018-09-29T00:33:12.967Z,1030.60
2018-09-29T00:34:40.262Z,1030.58
2018-09-29T00:36:07.399Z,1030.57
2018-09-29T00:37:33.550Z,1030.56
2018-09-29T00:38:59.884Z,1030.56
2018-09-29T00:40:26.992Z,1030.59
2018-09-29T00:41:54.173Z,1030.58
2018-09-29T00:43:21.560Z,1030.55
2018-09-29T00:44:48.730Z,1030.57
2018-09-29T00:46:16.965Z,1030.58
2018-09-29T00:47:43.039Z,1030.61
2018-09-29T00:49:10.401Z,1030.61
2018-09-29T00:50:37.776Z,1030.58
2018-09-29T00:52:05.179Z,1030.59
2018-09-29T00:53:32.402Z,1030.59
2018-09-29T00:54:59.778Z,1030.57
2018-09-29T00:56:25.886Z,1030.59
2018-09-29T00:57:53.238Z,1030.62
2018-09-29T00:59:19.533Z,1030.64
2018-09-29T01:00:46.032Z,1030.64
2018-09-29T01:02:12.949Z,1030.64
2018-09-29T01:03:39.590Z,1030.66
2018-09-29T01:05:06.832Z,1030.66
2018-09-29T01:06:34.015Z,1030.67
2018-09-29T01:08:01.275Z,1030.68
2018-09-29T01:09:28.516Z,1030.68
2018-09-29T01:10:55.974Z,1030.70
2018-09-29T01:12:23.276Z,1030.68
2018-09-29T01:13:50.586Z,1030.66
2018-09-29T01:15:17.887Z,1030.65
2018-09-29T01:16:44.345Z,1030.66
2018-09-29T01:18:11.091Z,1030.66
2018-09-29T01:19:38.382Z,1030.66
2018-09-29T01:21:04.699Z,1030.66
2018-09-29T01:22:31.680Z,1030.69
2018-09-29T01:23:59.085Z,1030.71
2018-09-29T01:25:26.276Z,1030.75
2018-09-29T01:26:53.641Z,1030.72
2018-09-29T01:28:20.899Z,1030.77
2018-09-29T01:29:46.892Z,1030.82
2018-09-29T01:31:14.169Z,1030.85
2018-09-29T01:32:41.421Z,1030.88
2018-09-29T01:34:07.840Z,1030.90
2018-09-29T01:35:35.171Z,1030.92
2018-09-29T01:37:02.393Z,1030.91
2018-09-29T01:38:29.505Z,1030.96
2018-09-29T01:39:56.919Z,1030.96
2018-09-29T01:41:24.160Z,1030.96
2018-09-29T01:42:51.531Z,1030.96
2018-09-29T01:44:18.110Z,1030.94
2018-09-29T01:45:45.523Z,1030.96
2018-09-29T01:47:12.785Z,1030.97
2018-09-29T01:48:40.073Z,1031.00
2018-09-29T01:50:07.347Z,1031.06
2018-09-29T01:51:44.568Z,1031.10
2018-09-29T01:53:00.858Z,1031.09
2018-09-29T01:54:28.249Z,1031.07
2018-09-29T01:55:55.559Z,1031.05
2018-09-29T01:57:22.807Z,1031.00
2018-09-29T01:58:49.962Z,1030.97
2018-09-29T02:00:16.181Z,1030.96
2018-09-29T02:01:43.333Z,1030.96
2018-09-29T02:03:10.462Z,1030.96
2018-09-29T02:04:37.830Z,1030.98
2018-09-29T02:06:05.092Z,1030.94
2018-09-29T02:07:32.399Z,1030.92
2018-09-29T02:08:59.757Z,1030.91
2018-09-29T02:10:27.200Z,1030.91
2018-09-29T02:11:53.557Z,1030.91
2018-09-29T02:13:20.736Z,1030.91
2018-09-29T02:14:48.054Z,1030.91
2018-09-29T02:16:15.268Z,1030.92
2018-09-29T02:17:42.547Z,1030.94
2018-09-29T02:19:09.496Z,1030.95
2018-09-29T02:20:36.823Z,1030.96
2018-09-29T02:22:04.028Z,1030.98
2018-09-29T02:23:30.079Z,1030.98
2018-09-29T02:24:56.241Z,1030.97
2018-09-29T02:26:23.377Z,1030.98
2018-09-29T02:27:49.527Z,1030.98
2018-09-29T02:29:16.753Z,1030.97
2018-09-29T02:30:43.222Z,1030.96
2018-09-29T02:32:10.616Z,1030.96
2018-09-29T02:33:36.540Z,1030.97
2018-09-29T02:35:02.785Z,1030.98
2018-09-29T02:36:29.921Z,1031.01
2018-09-29T02:37:57.277Z,1031.02
2018-09-29T02:39:24.538Z,1031.03
2018-09-29T02:40:51.799Z,1031.06
2018-09-29T02:42:19.094Z,1031.05
2018-09-29T02:43:46.224Z,1031.03
2018-09-29T02:45:13.451Z,1031.05
2018-09-29T02:46:40.262Z,1031.07
2018-09-29T02:48:07.678Z,1031.07
2018-09-29T02:49:34.719Z,1031.06
2018-09-29T02:51:02.050Z,1031.05
2018-09-29T02:52:29.126Z,1031.03
2018-09-29T02:53:56.464Z,1031.05
2018-09-29T02:55:23.695Z,1031.04
2018-09-29T02:56:50.978Z,1031.07
2018-09-29T02:58:17.240Z,1031.08
2018-09-29T02:59:44.206Z,1031.06
2018-09-29T03:01:11.452Z,1031.04
2018-09-29T03:02:38.526Z,1031.04
2018-09-29T03:04:05.695Z,1031.03
2018-09-29T03:05:32.997Z,1031.01
2018-09-29T03:07:01.206Z,1031.02
2018-09-29T03:08:26.601Z,1031.03
2018-09-29T03:09:52.602Z,1031.06
2018-09-29T03:11:19.963Z,1031.09
2018-09-29T03:12:47.364Z,1031.11
2018-09-29T03:14:14.713Z,1031.09
2018-09-29T03:15:40.825Z,1031.14
2018-09-29T03:17:08.033Z,1031.12
2018-09-29T03:18:34.084Z,1031.11
2018-09-29T03:20:01.387Z,1031.13
2018-09-29T03:21:28.624Z,1031.17
2018-09-29T03:22:55.986Z,1031.19
2018-09-29T03:24:23.386Z,1031.22
2018-09-29T03:25:50.792Z,1031.24
2018-09-29T03:27:17.923Z,1031.29
2018-09-29T03:28:45.162Z,1031.29
2018-09-29T03:30:11.359Z,1031.28
2018-09-29T03:31:38.581Z,1031.26
2018-09-29T03:33:05.064Z,1031.22
2018-09-29T03:34:31.565Z,1031.21
2018-09-29T03:35:57.977Z,1031.23
2018-09-29T03:37:25.129Z,1031.25
2018-09-29T03:38:52.310Z,1031.27
2018-09-29T03:40:19.511Z,1031.28
2018-09-29T03:41:46.767Z,1031.30
2018-09-29T03:43:13.937Z,1031.28
2018-09-29T03:44:40.635Z,1031.30
2018-09-29T03:46:07.828Z,1031.34
2018-09-29T03:47:35.168Z,1031.35
2018-09-29T03:49:02.273Z,1031.33
2018-09-29T03:50:29.565Z,1031.36
2018-09-29T03:51:56.957Z,1031.33
2018-09-29T03:53:23.092Z,1031.30
2018-09-29T03:54:49.503Z,1031.27
2018-09-29T03:56:16.764Z,1031.26
2018-09-29T03:57:44.164Z,1031.25
2018-09-29T03:59:11.151Z,1031.23
2018-09-29T04:00:37.564Z,1031.22
2018-09-29T04:02:04.847Z,1031.22
2018-09-29T04:03:31.192Z,1031.22
2018-09-29T04:04:58.400Z,1031.23
2018-09-29T04:06:26.679Z,1031.24
2018-09-29T04:07:52.981Z,1031.24
2018-09-29T04:09:19.319Z,1031.23
2018-09-29T04:10:46.731Z,1031.26
2018-09-29T04:12:14.066Z,1031.29
2018-09-29T04:13:41.450Z,1031.30
2018-09-29T04:15:08.644Z,1031.28
2018-09-29T04:16:35.716Z,1031.26
2018-09-29T04:18:03.001Z,1031.24
2018-09-29T04:19:30.339Z,1031.24
2018-09-29T04:20:56.533Z,1031.24
2018-09-29T04:22:24.745Z,1031.24
2018-09-29T04:23:53.883Z,1031.25
2018-09-29T04:25:18.062Z,1031.21
2018-09-29T04:26:45.430Z,1031.20
2018-09-29T04:28:12.651Z,1031.19
2018-09-29T04:29:39.931Z,1031.16
2018-09-29T04:31:07.184Z,1031.14
2018-09-29T04:32:34.409Z,1031.15
2018-09-29T04:34:00.727Z,1031.16
2018-09-29T04:35:28.106Z,1031.18
2018-09-29T04:36:54.212Z,1031.14
2018-09-29T04:38:21.555Z,1031.14
2018-09-29T04:39:47.882Z,1031.16
2018-09-29T04:41:14.014Z,1031.18
2018-09-29T04:42:41.193Z,1031.17
2018-09-29T04:44:08.409Z,1031.14
2018-09-29T04:45:35.595Z,1031.09
2018-09-29T04:47:02.974Z,1031.07
2018-09-29T04:48:30.283Z,1031.09
2018-09-29T04:49:56.516Z,1031.07
2018-09-29T04:51:23.834Z,1031.09
2018-09-29T04:52:51.252Z,1031.11
2018-09-29T04:54:17.643Z,1031.12
2018-09-29T04:55:44.796Z,1031.16
2018-09-29T04:57:12.104Z,1031.15
2018-09-29T04:58:39.178Z,1031.14
2018-09-29T05:00:06.448Z,1031.17
2018-09-29T05:01:34.754Z,1031.21
2018-09-29T05:02:59.723Z,1031.20
2018-09-29T05:04:26.972Z,1031.21
2018-09-29T05:05:53.412Z,1031.24
2018-09-29T05:07:20.786Z,1031.27
2018-09-29T05:08:48.048Z,1031.26
2018-09-29T05:10:14.432Z,1031.31
2018-09-29T05:11:41.614Z,1031.29
2018-09-29T05:13:08.370Z,1031.26
2018-09-29T05:14:34.270Z,1031.25
2018-09-29T05:16:02.509Z,1031.27
2018-09-29T05:17:27.785Z,1031.29
2018-09-29T05:18:55.062Z,1031.30
2018-09-29T05:20:22.257Z,1031.28
2018-09-29T05:21:49.461Z,1031.25
2018-09-29T05:23:15.706Z,1031.24
2018-09-29T05:24:42.867Z,1031.22
2018-09-29T05:26:10.303Z,1031.22
2018-09-29T05:27:36.551Z,1031.22
2018-09-29T05:29:03.758Z,1031.23
2018-09-29T05:30:30.917Z,1031.23
2018-09-29T05:31:58.028Z,1031.24
2018-09-29T05:33:24.392Z,1031.26
2018-09-29T05:34:51.612Z,1031.24
2018-09-29T05:36:18.978Z,1031.22
2018-09-29T05:37:45.228Z,1031.23
2018-09-29T05:39:12.482Z,1031.25
2018-09-29T05:40:39.625Z,1031.27
2018-09-29T05:42:06.960Z,1031.24
2018-09-29T05:43:34.264Z,1031.20
2018-09-29T05:45:01.617Z,1031.21
2018-09-29T05:46:39.782Z,1031.22
2018-09-29T05:47:54.770Z,1031.19
2018-09-29T05:49:22.097Z,1031.19
2018-09-29T05:50:49.313Z,1031.22
2018-09-29T05:52:16.711Z,1031.26
2018-09-29T05:53:43.698Z,1031.27
2018-09-29T05:55:10.805Z,1031.30
2018-09-29T05:56:38.017Z,1031.32
2018-09-29T05:59:33.639Z,1031.35
2018-09-29T07:07:11.586Z,1031.38
2018-09-29T07:08:37.614Z,1031.36
2018-09-29T07:10:03.667Z,1031.35
2018-09-29T07:13:07.798Z,1031.34
2018-09-29T07:14:34.608Z,1031.38
2018-09-29T07:16:01.769Z,1031.36
2018-09-29T07:34:45.238Z,1031.56
2018-09-29T07:36:11.709Z,1031.59
2018-09-29T07:37:38.664Z,1031.58
2018-09-29T07:39:05.967Z,1031.59
2018-09-29T07:40:33.128Z,1031.63
2018-09-29T07:42:10.161Z,1031.70
2018-09-29T07:44:55.033Z,1031.74
2018-09-29T07:46:21.688Z,1031.76
2018-09-29T07:47:48.888Z,1031.76
2018-09-29T07:49:16.186Z,1031.77
2018-09-29T07:50:43.484Z,1031.79
2018-09-29T07:52:10.588Z,1031.81
2018-09-29T07:53:37.153Z,1031.80
2018-09-29T07:55:04.480Z,1031.83
2018-09-29T07:56:31.920Z,1031.84
2018-09-29T07:57:58.677Z,1031.87
2018-09-29T07:59:25.868Z,1031.92
2018-09-29T08:00:52.683Z,1031.96
2018-09-29T08:02:19.942Z,1031.97
2018-09-29T08:03:47.289Z,1031.96
2018-09-29T08:05:14.533Z,1031.95
2018-09-29T08:06:41.849Z,1031.93
2018-09-29T08:08:09.354Z,1031.95
2018-09-29T08:09:36.063Z,1031.94
2018-09-29T08:11:03.304Z,1031.92
2018-09-29T08:12:30.669Z,1031.91
2018-09-29T08:13:57.157Z,1031.89
2018-09-29T08:15:23.841Z,1031.85
2018-09-29T08:16:50.815Z,1031.84
2018-09-29T08:18:18.284Z,1031.83
2018-09-29T08:19:45.522Z,1031.85
2018-09-29T08:21:12.249Z,1031.85
2018-09-29T08:22:39.668Z,1031.88
2018-09-29T08:24:07.006Z,1031.92
2018-09-29T08:25:34.361Z,1031.92
2018-09-29T08:27:01.586Z,1031.95
2018-09-29T08:28:28.745Z,1031.92
2018-09-29T08:29:56.265Z,1031.89
2018-09-29T08:31:23.878Z,1031.88
2018-09-29T08:32:51.094Z,1031.89
2018-09-29T08:34:17.765Z,1031.84
2018-09-29T08:35:45.167Z,1031.80
2018-09-29T08:37:12.358Z,1031.83
2018-09-29T08:38:39.771Z,1031.86
2018-09-29T08:40:07.105Z,1031.93
2018-09-29T08:41:34.629Z,1031.94
2018-09-29T08:43:02.070Z,1031.92
2018-09-29T08:44:29.409Z,1031.95
2018-09-29T08:45:56.697Z,1031.98
2018-09-29T08:47:24.007Z,1032.02
2018-09-29T08:48:51.442Z,1032.02
2018-09-29T08:50:18.922Z,1032.00
2018-09-29T08:51:46.288Z,1031.99
2018-09-29T08:53:13.649Z,1031.94
2018-09-29T08:54:40.789Z,1031.93
2018-09-29T08:56:07.997Z,1031.94
2018-09-29T08:57:35.358Z,1031.92
2018-09-29T08:59:02.711Z,1031.95
2018-09-29T09:00:29.216Z,1031.91
2018-09-29T09:01:56.014Z,1031.93
2018-09-29T09:03:23.314Z,1031.93
2018-09-29T09:04:50.611Z,1031.92
2018-09-29T09:06:17.931Z,1031.95
2018-09-29T09:07:45.415Z,1031.93
2018-09-29T09:09:12.373Z,1031.93
2018-09-29T09:10:39.684Z,1031.90
2018-09-29T09:12:07.135Z,1031.93
2018-09-29T09:13:34.340Z,1031.89
2018-09-29T09:15:01.829Z,1031.89
2018-09-29T09:16:29.252Z,1031.88
2018-09-29T09:17:56.539Z,1031.89
2018-09-29T09:19:23.684Z,1031.88
2018-09-29T09:20:51.101Z,1031.88
2018-09-29T09:22:18.385Z,1031.84
2018-09-29T09:23:45.611Z,1031.79
2018-09-29T09:25:12.563Z,1031.77
2018-09-29T09:26:39.479Z,1031.79
2018-09-29T09:28:06.857Z,1031.77
2018-09-29T09:29:34.374Z,1031.75
2018-09-29T09:31:01.199Z,1031.77
2018-09-29T09:32:28.546Z,1031.79
2018-09-29T09:33:55.736Z,1031.82
2018-09-29T09:35:23.161Z,1031.83
2018-09-29T09:36:50.704Z,1031.81
2018-09-29T09:38:18.109Z,1031.80
2018-09-29T09:39:45.294Z,1031.79
2018-09-29T09:41:12.322Z,1031.75
2018-09-29T09:42:39.482Z,1031.72
2018-09-29T09:44:06.925Z,1031.71
2018-09-29T09:45:34.399Z,1031.68
2018-09-29T09:47:01.957Z,1031.71
2018-09-29T09:48:29.165Z,1031.68
2018-09-29T09:49:56.522Z,1031.66
2018-09-29T09:51:23.765Z,1031.65
2018-09-29T09:52:50.879Z,1031.67
2018-09-29T09:54:18.145Z,1031.64
2018-09-29T09:55:45.591Z,1031.58
2018-09-29T09:57:12.897Z,1031.53
2018-09-29T09:58:40.323Z,1031.51
2018-09-29T10:00:07.569Z,1031.51
2018-09-29T10:01:34.854Z,1031.49
2018-09-29T10:03:02.360Z,1031.50
2018-09-29T10:04:32.495Z,1031.47
2018-09-29T10:05:56.195Z,1031.45
2018-09-29T10:07:23.545Z,1031.45
2018-09-29T10:08:51.018Z,1031.43
2018-09-29T10:10:18.105Z,1031.38
2018-09-29T10:11:45.664Z,1031.38
2018-09-29T10:13:12.771Z,1031.37
2018-09-29T10:14:40.256Z,1031.34
2018-09-29T10:16:07.523Z,1031.30
2018-09-29T10:17:34.912Z,1031.28
2018-09-29T10:19:02.229Z,1031.29
2018-09-29T10:20:29.408Z,1031.24
2018-09-29T10:21:56.422Z,1031.22
2018-09-29T10:23:23.729Z,1031.17
2018-09-29T10:24:51.183Z,1031.18
2018-09-29T10:26:18.516Z,1031.20
2018-09-29T10:27:45.540Z,1031.24
2018-09-29T10:29:12.825Z,1031.22
2018-09-29T10:30:40.136Z,1031.19
2018-09-29T10:32:06.768Z,1031.19
2018-09-29T10:33:34.261Z,1031.17
2018-09-29T10:35:01.569Z,1031.13
2018-09-29T10:36:29.048Z,1031.12
2018-09-29T10:38:04.266Z,1031.09
2018-09-29T10:39:23.651Z,1031.06
2018-09-29T10:40:50.922Z,1031.06
2018-09-29T10:42:18.041Z,1031.05
2018-09-29T10:43:44.884Z,1031.05
2018-09-29T10:45:12.427Z,1031.04
2018-09-29T10:46:39.445Z,1031.05
2018-09-29T10:48:06.548Z,1031.04
2018-09-29T10:49:34.031Z,1031.01
2018-09-29T10:51:01.532Z,1031.04
2018-09-29T10:52:28.737Z,1031.00
2018-09-29T10:53:56.144Z,1030.99
2018-09-29T10:55:23.507Z,1030.94
2018-09-29T10:56:50.483Z,1030.89
2018-09-29T10:58:17.986Z,1030.88
2018-09-29T10:59:44.885Z,1030.87
2018-09-29T11:01:12.310Z,1030.86
2018-09-29T11:02:39.909Z,1030.85
2018-09-29T11:04:07.214Z,1030.83
2018-09-29T11:05:34.567Z,1030.84
2018-09-29T11:07:01.587Z,1030.79
2018-09-29T11:08:28.726Z,1030.74
2018-09-29T11:09:56.173Z,1030.71
2018-09-29T11:11:23.629Z,1030.68
2018-09-29T11:12:51.047Z,1030.70
2018-09-29T11:14:18.336Z,1030.67
2018-09-29T11:15:45.811Z,1030.67
2018-09-29T11:17:13.172Z,1030.64
2018-09-29T11:18:40.648Z,1030.60
2018-09-29T11:20:08.272Z,1030.55
2018-09-29T11:21:35.491Z,1030.47
2018-09-29T11:23:02.594Z,1030.47
2018-09-29T11:24:29.830Z,1030.47
2018-09-29T11:25:56.873Z,1030.48
2018-09-29T11:27:24.387Z,1030.46
2018-09-29T11:28:51.743Z,1030.45
2018-09-29T11:30:19.184Z,1030.49
2018-09-29T11:31:46.580Z,1030.48
2018-09-29T11:33:14.059Z,1030.49
2018-09-29T11:34:41.250Z,1030.46
2018-09-29T11:36:08.397Z,1030.40
2018-09-29T11:37:35.294Z,1030.36
2018-09-29T11:39:02.605Z,1030.31
2018-09-29T11:40:30.090Z,1030.30
2018-09-29T11:41:57.513Z,1030.25
2018-09-29T11:43:24.654Z,1030.20
2018-09-29T11:44:51.681Z,1030.18
2018-09-29T11:46:19.054Z,1030.15
2018-09-29T11:47:46.358Z,1030.17
2018-09-29T11:49:13.670Z,1030.17
2018-09-29T11:50:41.054Z,1030.18
2018-09-29T11:52:08.430Z,1030.16
2018-09-29T11:53:35.698Z,1030.12
2018-09-29T11:55:03.007Z,1030.05
2018-09-29T11:56:30.478Z,1030.07
2018-09-29T11:57:57.933Z,1030.10
2018-09-29T11:59:25.433Z,1030.09
2018-09-29T12:00:53.047Z,1030.11
2018-09-29T12:02:20.533Z,1030.09
2018-09-29T12:03:47.687Z,1030.08
2018-09-29T12:05:14.751Z,1030.08
2018-09-29T12:06:41.953Z,1030.10
2018-09-29T12:08:08.887Z,1030.04
2018-09-29T12:09:36.380Z,1030.03
2018-09-29T12:11:03.106Z,1030.03
2018-09-29T12:12:30.501Z,1029.95
2018-09-29T12:13:58.048Z,1029.94
2018-09-29T12:15:25.497Z,1029.93
2018-09-29T12:16:52.930Z,1029.87
2018-09-29T12:18:20.225Z,1029.81
2018-09-29T12:19:47.497Z,1029.79
2018-09-29T12:21:14.951Z,1029.75
2018-09-29T12:22:42.207Z,1029.74
2018-09-29T12:24:09.424Z,1029.75
2018-09-29T12:25:36.928Z,1029.73
2018-09-29T12:27:04.154Z,1029.70
2018-09-29T12:28:31.413Z,1029.68
2018-09-29T12:29:58.823Z,1029.67
2018-09-29T12:31:26.342Z,1029.61
2018-09-29T12:32:53.799Z,1029.56
2018-09-29T12:34:21.246Z,1029.52
2018-09-29T12:35:48.503Z,1029.45
2018-09-29T12:37:16.376Z,1029.42
2018-09-29T12:38:43.201Z,1029.37
2018-09-29T12:40:10.558Z,1029.31
2018-09-29T12:41:38.156Z,1029.31
2018-09-29T12:43:05.344Z,1029.29
2018-09-29T12:44:32.826Z,1029.27
2018-09-29T12:46:00.259Z,1029.25
2018-09-29T12:47:27.842Z,1029.20
2018-09-29T12:48:55.285Z,1029.17
2018-09-29T12:50:22.790Z,1029.20
2018-09-29T12:51:49.837Z,1029.18
2018-09-29T12:53:17.249Z,1029.15
2018-09-29T12:54:44.363Z,1029.16
2018-09-29T12:56:11.822Z,1029.15
2018-09-29T12:57:39.072Z,1029.11
2018-09-29T12:59:06.702Z,1029.11
2018-09-29T13:00:34.178Z,1029.07
2018-09-29T13:02:01.600Z,1029.05
2018-09-29T13:03:29.076Z,1029.02
2018-09-29T13:04:56.738Z,1028.93
2018-09-29T13:06:24.302Z,1028.92
2018-09-29T13:07:51.626Z,1028.93
2018-09-29T13:09:18.601Z,1028.95
2018-09-29T13:10:46.048Z,1028.89
2018-09-29T13:12:13.543Z,1028.90
2018-09-29T13:13:41.043Z,1028.93
2018-09-29T13:15:08.240Z,1028.90
2018-09-29T13:16:35.251Z,1028.89
2018-09-29T13:18:02.529Z,1028.88
2018-09-29T13:19:29.882Z,1028.90
2018-09-29T13:20:57.356Z,1028.91
2018-09-29T13:22:25.090Z,1028.92
2018-09-29T13:23:52.386Z,1028.88
2018-09-29T13:25:19.828Z,1028.84
2018-09-29T13:26:47.194Z,1028.82
2018-09-29T13:28:14.384Z,1028.80
2018-09-29T13:29:41.891Z,1028.77
2018-09-29T13:31:09.225Z,1028.81
2018-09-29T13:32:36.579Z,1028.82
2018-09-29T13:34:03.942Z,1028.78
2018-09-29T13:35:31.517Z,1028.74
2018-09-29T13:36:58.875Z,1028.75
2018-09-29T13:38:26.425Z,1028.72
2018-09-29T13:39:53.484Z,1028.67
2018-09-29T13:41:20.703Z,1028.58
2018-09-29T13:42:48.072Z,1028.57
2018-09-29T13:44:15.504Z,1028.54
2018-09-29T13:45:42.598Z,1028.52
2018-09-29T13:47:10.123Z,1028.50
2018-09-29T13:48:37.400Z,1028.49
2018-09-29T13:50:04.420Z,1028.47
2018-09-29T13:51:32.083Z,1028.43
2018-09-29T13:52:59.512Z,1028.40
2018-09-29T13:54:26.438Z,1028.37
2018-09-29T13:55:53.676Z,1028.35
2018-09-29T13:57:20.985Z,1028.35
2018-09-29T13:58:47.914Z,1028.35
2018-09-29T14:00:15.302Z,1028.33
2018-09-29T14:01:42.789Z,1028.31
2018-09-29T14:03:09.957Z,1028.29
2018-09-29T14:04:37.378Z,1028.33
2018-09-29T14:06:05.013Z,1028.34
2018-09-29T14:07:32.466Z,1028.36
2018-09-29T14:08:59.940Z,1028.37
2018-09-29T14:10:27.231Z,1028.38
2018-09-29T14:11:54.614Z,1028.38
2018-09-29T14:13:21.484Z,1028.37
2018-09-29T14:14:48.463Z,1028.33
2018-09-29T14:16:15.750Z,1028.31
2018-09-29T14:17:43.221Z,1028.31
2018-09-29T14:19:10.488Z,1028.30
2018-09-29T14:20:37.864Z,1028.28
2018-09-29T14:22:05.335Z,1028.30
2018-09-29T14:23:33.007Z,1028.28
2018-09-29T14:25:00.357Z,1028.26
2018-09-29T14:26:27.257Z,1028.26
2018-09-29T14:27:54.906Z,1028.24
2018-09-29T14:29:21.567Z,1028.24
2018-09-29T14:30:48.847Z,1028.22
2018-09-29T14:32:16.154Z,1028.18
2018-09-29T14:33:43.176Z,1028.18
2018-09-29T14:35:10.518Z,1028.15
2018-09-29T14:36:38.098Z,1028.13
2018-09-29T14:38:05.496Z,1028.14
2018-09-29T14:39:32.885Z,1028.14
2018-09-29T14:41:00.248Z,1028.15
2018-09-29T14:42:27.335Z,1028.13
2018-09-29T14:43:54.609Z,1028.11
2018-09-29T14:45:21.176Z,1028.11
2018-09-29T14:46:48.644Z,1028.10
2018-09-29T14:48:16.042Z,1028.08
2018-09-29T14:49:42.887Z,1028.12
2018-09-29T14:51:10.231Z,1028.08
2018-09-29T14:52:37.662Z,1028.12
2018-09-29T14:54:05.086Z,1028.10
2018-09-29T14:55:32.565Z,1028.13
2018-09-29T14:56:59.350Z,1028.16
2018-09-29T14:58:26.631Z,1028.18
2018-09-29T14:59:54.116Z,1028.21
2018-09-29T15:01:21.475Z,1028.23
2018-09-29T15:02:48.882Z,1028.26
2018-09-29T15:04:16.353Z,1028.26
2018-09-29T15:05:43.713Z,1028.30
2018-09-29T15:07:11.262Z,1028.30
2018-09-29T15:08:38.761Z,1028.24
2018-09-29T15:10:05.232Z,1028.25
2018-09-29T15:11:32.898Z,1028.25
2018-09-29T15:12:59.579Z,1028.22
2018-09-29T15:14:26.650Z,1028.23
2018-09-29T15:15:53.322Z,1028.24
2018-09-29T15:17:20.896Z,1028.23
2018-09-29T15:18:48.148Z,1028.24
2018-09-29T15:20:15.819Z,1028.21
2018-09-29T15:21:42.644Z,1028.16
2018-09-29T15:23:09.642Z,1028.12
2018-09-29T15:24:37.063Z,1028.13
2018-09-29T15:26:04.437Z,1028.14
2018-09-29T15:27:31.823Z,1028.11
2018-09-29T15:28:59.554Z,1028.10
2018-09-29T15:30:25.784Z,1028.06
2018-09-29T15:31:53.275Z,1028.03
2018-09-29T15:33:20.878Z,1028.04
2018-09-29T15:34:48.297Z,1028.01
2018-09-29T15:36:15.526Z,1028.01
2018-09-29T15:37:42.844Z,1027.95
2018-09-29T15:39:10.190Z,1027.94
2018-09-29T15:40:37.461Z,1027.93
2018-09-29T15:42:04.895Z,1027.91
2018-09-29T15:43:31.675Z,1027.88
2018-09-29T15:44:59.210Z,1027.89
2018-09-29T15:46:26.412Z,1027.88
2018-09-29T15:47:53.937Z,1027.84
2018-09-29T15:49:21.380Z,1027.82
2018-09-29T15:50:48.831Z,1027.80
2018-09-29T15:52:16.344Z,1027.83
2018-09-29T15:53:43.697Z,1027.82
2018-09-29T15:55:10.983Z,1027.81
2018-09-29T15:56:37.685Z,1027.77
2018-09-29T15:58:04.606Z,1027.75
2018-09-29T15:59:31.936Z,1027.75
2018-09-29T16:00:58.788Z,1027.72
2018-09-29T16:02:26.352Z,1027.72
2018-09-29T16:03:53.635Z,1027.73
2018-09-29T16:05:21.007Z,1027.75
2018-09-29T16:06:48.345Z,1027.73
2018-09-29T16:08:15.735Z,1027.70
2018-09-29T16:09:42.627Z,1027.68
2018-09-29T16:11:09.882Z,1027.72
2018-09-29T16:12:37.326Z,1027.72
2018-09-29T16:14:03.733Z,1027.73
2018-09-29T16:15:30.531Z,1027.72
2018-09-29T16:16:57.966Z,1027.73
2018-09-29T16:18:25.521Z,1027.74
2018-09-29T16:19:52.990Z,1027.75
2018-09-29T16:21:20.417Z,1027.74
2018-09-29T16:22:47.975Z,1027.72
2018-09-29T16:24:15.346Z,1027.74
2018-09-29T16:25:42.285Z,1027.72
2018-09-29T16:27:09.528Z,1027.73
2018-09-29T16:28:36.878Z,1027.73
2018-09-29T16:30:04.438Z,1027.72
2018-09-29T16:31:31.846Z,1027.70
2018-09-29T16:32:59.294Z,1027.68
2018-09-29T16:34:26.844Z,1027.65
2018-09-29T16:35:54.283Z,1027.68
2018-09-29T16:37:21.600Z,1027.68
2018-09-29T16:38:48.757Z,1027.70
2018-09-29T16:40:15.604Z,1027.69
2018-09-29T16:41:42.774Z,1027.68
2018-09-29T16:43:09.786Z,1027.67
2018-09-29T16:44:37.067Z,1027.66
2018-09-29T16:46:04.350Z,1027.67
2018-09-29T16:47:31.768Z,1027.68
2018-09-29T16:48:59.321Z,1027.68
2018-09-29T16:50:26.766Z,1027.70
2018-09-29T16:51:54.053Z,1027.72
2018-09-29T16:53:21.355Z,1027.73
2018-09-29T16:54:48.469Z,1027.73
2018-09-29T16:56:15.558Z,1027.73
2018-09-29T16:57:42.732Z,1027.75
2018-09-29T16:59:10.092Z,1027.73
2018-09-29T17:00:37.496Z,1027.69
2018-09-29T17:02:04.907Z,1027.71
2018-09-29T17:03:32.482Z,1027.73
2018-09-29T17:04:59.768Z,1027.75
2018-09-29T17:06:27.243Z,1027.72
2018-09-29T17:07:53.859Z,1027.71
2018-09-29T17:09:21.186Z,1027.68
2018-09-29T17:10:48.685Z,1027.67
2018-09-29T17:12:16.034Z,1027.67
2018-09-29T17:13:43.640Z,1027.68
2018-09-29T17:15:10.629Z,1027.66
2018-09-29T17:16:38.351Z,1027.65
2018-09-29T17:18:05.729Z,1027.62
2018-09-29T17:19:33.322Z,1027.63
2018-09-29T17:21:00.657Z,1027.63
2018-09-29T17:22:28.043Z,1027.61
2018-09-29T17:23:55.094Z,1027.59
2018-09-29T17:25:22.454Z,1027.56
2018-09-29T17:26:50.077Z,1027.55
2018-09-29T17:28:17.230Z,1027.54
2018-09-29T17:29:44.535Z,1027.53
2018-09-29T17:31:12.072Z,1027.53
2018-09-29T17:32:39.160Z,1027.54
2018-09-29T17:34:06.193Z,1027.55
2018-09-29T17:35:33.477Z,1027.58
2018-09-29T17:37:01.092Z,1027.60
2018-09-29T17:38:28.260Z,1027.64
2018-09-29T17:39:55.703Z,1027.62
2018-09-29T17:41:22.811Z,1027.60
2018-09-29T17:42:49.976Z,1027.60
2018-09-29T17:44:17.364Z,1027.57
2018-09-29T17:45:44.230Z,1027.56
2018-09-29T17:47:11.730Z,1027.58
2018-09-29T17:48:38.503Z,1027.57
2018-09-29T17:50:05.618Z,1027.57
2018-09-29T17:51:32.681Z,1027.57
2018-09-29T17:53:00.196Z,1027.57
2018-09-29T17:54:27.611Z,1027.57
2018-09-29T17:55:55.164Z,1027.57
2018-09-29T17:57:22.304Z,1027.57
2018-09-29T17:58:49.754Z,1027.58
2018-09-29T18:00:17.135Z,1027.57
2018-09-29T18:01:44.216Z,1027.53
2018-09-29T18:03:11.810Z,1027.50
2018-09-29T18:04:38.935Z,1027.46
2018-09-29T18:06:06.110Z,1027.44
2018-09-29T18:07:33.204Z,1027.41
2018-09-29T18:09:00.703Z,1027.40
2018-09-29T18:10:27.975Z,1027.39
2018-09-29T18:11:55.525Z,1027.37
2018-09-29T18:13:23.048Z,1027.37
2018-09-29T18:14:50.346Z,1027.36
2018-09-29T18:16:17.825Z,1027.37
2018-09-29T18:17:45.104Z,1027.39
2018-09-29T18:19:12.438Z,1027.39
2018-09-29T18:20:39.877Z,1027.37
2018-09-29T18:22:07.349Z,1027.38
2018-09-29T18:23:35.671Z,1027.36
2018-09-29T18:25:01.956Z,1027.39
2018-09-29T18:26:29.303Z,1027.38
2018-09-29T18:27:56.983Z,1027.39
2018-09-29T18:29:23.904Z,1027.40
2018-09-29T18:30:51.186Z,1027.44
2018-09-29T18:32:18.119Z,1027.44
2018-09-29T18:33:45.453Z,1027.47
2018-09-29T18:35:12.599Z,1027.44
2018-09-29T18:36:39.764Z,1027.40
2018-09-29T18:38:06.713Z,1027.37
2018-09-29T18:39:34.102Z,1027.37
2018-09-29T18:41:01.545Z,1027.35
2018-09-29T18:42:29.117Z,1027.33
2018-09-29T18:43:56.485Z,1027.33
2018-09-29T18:45:23.550Z,1027.29
2018-09-29T18:46:50.589Z,1027.29
2018-09-29T18:48:17.798Z,1027.29
2018-09-29T18:49:45.106Z,1027.28
2018-09-29T18:51:12.504Z,1027.27
2018-09-29T18:52:39.817Z,1027.25
2018-09-29T18:54:07.089Z,1027.20
2018-09-29T18:55:34.387Z,1027.21
2018-09-29T18:57:01.364Z,1027.24
2018-09-29T18:58:28.709Z,1027.25
2018-09-29T18:59:56.097Z,1027.24
2018-09-29T19:01:23.578Z,1027.24
2018-09-29T19:02:50.806Z,1027.23